WetterOnline ( https://www.wetteronline.de )

Wetter aktuell Traunstein

Aktuelles Wetter: Chieming (553m)

6-stündlich | Neueste Meldungen
Ortszeit Temperatur Wetter
Mo, 16.05. 8:00 15.4° C bedeckt
Mo, 16.05. 2:00 12.8° C wolkig
So, 15.05. 20:00 21.2° C wolkenlos
So, 15.05. 14:00 22.2° C wolkenlos
So, 15.05. 8:00 14.7° C leicht bewölkt
So, 15.05. 2:00 11.0° C leicht bewölkt
Sa, 14.05. 20:00 19.1° C wolkenlos
Sa, 14.05. 14:00 19.6° C wolkenlos
Ortszeit Temperatur Wetter
Mo, 16.05. 11:10 20.7° C bewölkt
Mo, 16.05. 11:00 20.4° C bewölkt
Mo, 16.05. 10:50 20.4° C bewölkt
Mo, 16.05. 10:40 20.7° C bewölkt
Mo, 16.05. 10:30 19.6° C wolkig
Mo, 16.05. 10:20 19.6° C wolkig
Mo, 16.05. 10:00 20.1° C wolkig
Mo, 16.05. 9:30 19.3° C bewölkt
Mo, 16.05. 9:00 18.4° C bedeckt
Mo, 16.05. 8:30 16.8° C bewölkt
Ortszeit Relative Feuchte Sichtweite
Mo, 16.05. 8:00 85% 18 km
Mo, 16.05. 2:00 84% 55 km
So, 15.05. 20:00 51% 45 km
So, 15.05. 14:00 48% 55 km
So, 15.05. 8:00 76% 35 km
So, 15.05. 2:00 90% 27 km
Sa, 14.05. 20:00 56% 55 km
Sa, 14.05. 14:00 58% 50 km
Ortszeit Relative Feuchte Sichtweite
Mo, 16.05. 11:10 62% -
Mo, 16.05. 11:00 61% 50 km
Mo, 16.05. 10:50 61% -
Mo, 16.05. 10:40 60% -
Mo, 16.05. 10:30 63% 50 km
Mo, 16.05. 10:20 63% -
Mo, 16.05. 10:00 59% 45 km
Mo, 16.05. 9:30 64% 55 km
Mo, 16.05. 9:00 66% 60 km
Mo, 16.05. 8:30 80% 28 km
Ortszeit Niederschlagsmenge Niederschlagsart
Mo, 16.05. 8:00 0.0 l/m2 in 12 Std. -
Mo, 16.05. 2:00 0.0 l/m2 in 6 Std. -
So, 15.05. 20:00 0.0 l/m2 in 12 Std. -
So, 15.05. 14:00 0.4 l/m2 in 6 Std. Sprühregen
So, 15.05. 8:00 0.0 l/m2 in 12 Std. -
So, 15.05. 2:00 0.0 l/m2 in 6 Std. -
Sa, 14.05. 20:00 0.0 l/m2 in 12 Std. -
Sa, 14.05. 14:00 0.0 l/m2 in 6 Std. -
Ortszeit Niederschlagsmenge Niederschlagsart
Mo, 16.05. 11:10 keine Meldung -
Mo, 16.05. 11:00 0.0 l/m2 in 1 Std. -
Mo, 16.05. 10:50 keine Meldung -
Mo, 16.05. 10:40 keine Meldung -
Mo, 16.05. 10:30 0.0 l/m2 in 1 Std. -
Mo, 16.05. 10:20 keine Meldung -
Mo, 16.05. 10:00 0.0 l/m2 in 1 Std. -
Mo, 16.05. 9:30 0.0 l/m2 in 1 Std. -
Mo, 16.05. 9:00 0.0 l/m2 in 1 Std. -
Mo, 16.05. 8:30 0.0 l/m2 in 1 Std. -
Ortszeit Stärke Spitze Richtung
km/h Bft. km/h Grad Sektor
Mo, 16.05. 8:00 7 2 11 70° O
Mo, 16.05. 2:00 7 2 14 80° O
So, 15.05. 20:00 7 2 25 50° NO
So, 15.05. 14:00 11 2 26 50° NO
So, 15.05. 8:00 4 1 7 60° NO
So, 15.05. 2:00 7 2 11 90° O
Sa, 14.05. 20:00 7 2 14 30° NO
Sa, 14.05. 14:00 7 2 18 260° W
Ortszeit Stärke Spitze Richtung
km/h Bft. km/h Grad Sektor
Mo, 16.05. 11:10 6 1 - 280° W
Mo, 16.05. 11:00 7 2 11 290° W
Mo, 16.05. 10:50 7 2 - 290° W
Mo, 16.05. 10:40 7 2 - 290° W
Mo, 16.05. 10:30 7 2 11 290° W
Mo, 16.05. 10:20 7 2 - 290° W
Mo, 16.05. 10:00 4 1 7 280° W
Mo, 16.05. 9:30 4 1 7 290° W
Mo, 16.05. 9:00 4 1 7 10° N
Mo, 16.05. 8:30 2 1 9 50° NO
Ortszeit Untergrenze Bedeckung Gattung
total tief tief mittel hoch
Mo, 16.05. 8:00 3600 m 8/8 8/8 - - -
Mo, 16.05. 2:00 9000 m 8/8 0/8 - - -
So, 15.05. 20:00 - 0/8 0/8 - - -
So, 15.05. 14:00 - 0/8 0/8 - - -
So, 15.05. 8:00 9000 m 4/8 0/8 - - -
So, 15.05. 2:00 10500 m 6/8 0/8 - - -
Sa, 14.05. 20:00 - 0/8 0/8 - - -
Sa, 14.05. 14:00 - 0/8 0/8 - - -
Ortszeit Bedeckungsgrad in Achtel und Wolkenuntergrenze
Mo, 16.05. 11:10 7
Mo, 16.05. 11:00 7(2700m) 7(4200m)
Mo, 16.05. 10:50 7(2700m) 7(4200m)
Mo, 16.05. 10:40 7
Mo, 16.05. 10:30 2(2700m) 8(8700m) 8(9000m)
Mo, 16.05. 10:20 2(2700m) 8(8700m) 8(9000m)
Mo, 16.05. 10:00 5(3600m) 7(5700m) 7(8700m)
Mo, 16.05. 9:30 6(3300m) 7(3900m) 8(8700m)
Mo, 16.05. 9:00 4(3900m) 8(6000m) 8(8700m)
Mo, 16.05. 8:30 7(3900m) 8(7200m) 8(8400m)
Ortszeit Luftdruck NN (hPa) Tendenz (hPa in 3 Std.)
Mo, 16.05. 8:00 1018 + 0,6
Mo, 16.05. 2:00 1017 - 0,2
So, 15.05. 20:00 1015 - 0,4
So, 15.05. 14:00 1017 - 0,9
So, 15.05. 8:00 1020 + 0,3
So, 15.05. 2:00 1021 - 0,5
Sa, 14.05. 20:00 1018 - 0,1
Sa, 14.05. 14:00 1020 - 0,8
Ortszeit Luftdruck NN (hPa) Tendenz (hPa in 3 Std.)
Mo, 16.05. 11:10 1018 keine Meldung
Mo, 16.05. 11:00 1018 + 1,1
Mo, 16.05. 10:50 1018 keine Meldung
Mo, 16.05. 10:40 1018 keine Meldung
Mo, 16.05. 10:30 1018 + 0,7
Mo, 16.05. 10:20 1018 keine Meldung
Mo, 16.05. 10:00 1017 + 0,6
Mo, 16.05. 9:30 1017 + 0,6
Mo, 16.05. 9:00 1017 + 0,5
Mo, 16.05. 8:30 1018 + 0,5
Ortszeit Schneehöhe (cm)
Mo, 16.05. 8:00 0
Mo, 16.05. 2:00 0
So, 15.05. 20:00 0
So, 15.05. 14:00 0
So, 15.05. 8:00 0
So, 15.05. 2:00 0
Sa, 14.05. 20:00 0
Sa, 14.05. 14:00 0
Ortszeit Schneehöhe (cm)
Mo, 16.05. 11:10 0
Mo, 16.05. 11:00 0
Mo, 16.05. 10:50 0
Mo, 16.05. 10:40 0
Mo, 16.05. 10:30 0
Mo, 16.05. 10:20 0
Mo, 16.05. 10:00 0
Mo, 16.05. 9:30 0
Mo, 16.05. 9:00 0
Mo, 16.05. 8:30 0
Link zu dieser Seite / Seite empfehlen

Das Wetter in ...